This is the latest recevied weather packets stored in our database for station/object VK2XSE. If no packets are shown the sender has not sent any weather packets the latest 10 day(s).
| Time | Temp. | Humidity | Pressure | Rain* | Wind** | Luminosity | Snow |
|---|---|---|---|---|---|---|---|
| 1777878317 | 18.33° C | 58% | 1015.5 hPa | 0 mm | - | 22 W/m² | - |
| 1777877717 | 18.33° C | 56% | 1015.3 hPa | 0 mm | - | 42 W/m² | - |
| 1777877117 | 18.33° C | 54% | 1015.3 hPa | 0 mm | - | 87 W/m² | - |
| 1777876517 | 18.89° C | 54% | 1015.4 hPa | 0 mm | - | 113 W/m² | - |
| 1777875917 | 18.89° C | 54% | 1015.3 hPa | 0 mm | - | 166 W/m² | - |
| 1777875317 | 19.44° C | 50% | 1015.3 hPa | 0 mm | - | 187 W/m² | - |
| 1777874717 | 19.44° C | 51% | 1015.2 hPa | 0 mm | - | 226 W/m² | - |
| 1777874117 | 19.44° C | 51% | 1015.2 hPa | 0 mm | - | 277 W/m² | - |
| 1777873517 | 19.44° C | 51% | 1015.2 hPa | 0 mm | - | 286 W/m² | - |
| 1777872917 | 19.44° C | 50% | 1015.1 hPa | 0 mm | - | 320 W/m² | - |
| 1777872317 | 19.44° C | 53% | 1015 hPa | 0 mm | - | 366 W/m² | - |
| 1777871717 | 20° C | 50% | 1014.9 hPa | 0 mm | - | 296 W/m² | - |
| 1777871117 | 20° C | 50% | 1014.9 hPa | 0 mm | - | 401 W/m² | - |
| 1777870517 | 20° C | 51% | 1014.8 hPa | 0 mm | - | 431 W/m² | - |
| 1777869917 | 20° C | 52% | 1014.9 hPa | 0 mm | - | 453 W/m² | - |
| 1777869317 | 20° C | 54% | 1014.8 hPa | 0 mm | - | 475 W/m² | - |
| 1777868717 | 20° C | 50% | 1014.9 hPa | 0 mm | - | 325 W/m² | - |
| 1777868117 | 20° C | 52% | 1014.8 hPa | 0 mm | - | 516 W/m² | - |
| 1777867517 | 20° C | 54% | 1014.8 hPa | 0 mm | - | 529 W/m² | - |
| 1777866917 | 20° C | 53% | 1014.8 hPa | 0 mm | - | 543 W/m² | - |
| 1777866317 | 20° C | 54% | 1014.9 hPa | 0 mm | - | 540 W/m² | - |
| 1777865717 | 19.44° C | 55% | 1015 hPa | 0 mm | - | 587 W/m² | - |
| 1777865117 | 20° C | 55% | 1015 hPa | 0 mm | - | 580 W/m² | - |
| 1777864517 | 19.44° C | 54% | 1015 hPa | 0 mm | - | 578 W/m² | - |
| 1777863917 | 20° C | 53% | 1015.1 hPa | 0 mm | - | 579 W/m² | - |
* Rain latest hour (hover to see other rain measurements)
** Current wind speed in m/s (hover to see current wind gust speed)